Time;durP1;ratioP1;P1;durP2;ratioP2;P2;SDS_P1;SDS_P2;PMS_P1;PMS_P2;Temp;Humidity;BMP_temperature;BMP_pressure;BME280_temperature;BME280_humidity;BME280_pressure;Samples;Min_cycle;Max_cycle;Signal;HPM_P1;HPM_P2
2022/11/17 00:00:40;;;;;;;4.53;2.55;;;18.90;1.00;;;;;;4826136;29;20050;-52
2022/11/17 00:03:12;;;;;;;5.03;2.63;;;18.90;1.00;;;;;;4826282;29;20412;-53
2022/11/17 00:05:39;;;;;;;5.55;2.67;;;18.80;1.00;;;;;;4826375;29;20057;-52
2022/11/17 00:08:06;;;;;;;5.30;2.40;;;18.80;1.00;;;;;;4825992;29;20046;-51
2022/11/17 00:10:33;;;;;;;4.05;2.58;;;18.80;1.00;;;;;;4825792;29;20053;-50
2022/11/17 00:15:46;;;;;;;6.03;2.15;;;18.80;1.00;;;;;;4826199;29;20057;-51
2022/11/17 00:23:46;;;;;;;7.65;3.60;;;18.70;1.00;;;;;;4826081;29;20053;-50
2022/11/17 00:26:18;;;;;;;7.43;3.00;;;18.70;1.00;;;;;;4826008;29;20069;-49
2022/11/17 00:28:45;;;;;;;7.63;3.43;;;18.70;1.00;;;;;;4825419;29;20405;-52
2022/11/17 00:34:05;;;;;;;6.45;2.72;;;18.60;1.00;;;;;;4825759;29;20054;-51
2022/11/17 00:36:38;;;;;;;6.32;2.97;;;18.60;1.00;;;;;;4825935;29;20050;-53
2022/11/17 00:39:07;;;;;;;7.00;3.58;;;18.60;1.00;;;;;;4825489;29;20471;-50
2022/11/17 00:41:34;;;;;;;6.32;3.03;;;18.50;1.00;;;;;;4825664;29;20441;-52
2022/11/17 00:44:01;;;;;;;4.85;2.85;;;18.60;1.00;;;;;;4825717;29;20511;-54
2022/11/17 00:46:28;;;;;;;5.00;3.33;;;18.50;1.00;;;;;;4825734;29;20047;-52
2022/11/17 00:48:55;;;;;;;3.95;2.35;;;18.50;1.00;;;;;;4825428;29;20051;-53
2022/11/17 00:51:23;;;;;;;4.38;2.50;;;18.50;1.00;;;;;;4825420;29;20065;-51
2022/11/17 00:53:51;;;;;;;5.65;2.30;;;18.50;1.00;;;;;;4825524;29;20111;-53
2022/11/17 00:56:18;;;;;;;7.28;3.50;;;18.50;1.00;;;;;;4825394;29;20385;-52
2022/11/17 00:58:44;;;;;;;7.97;3.08;;;18.40;1.00;;;;;;4824998;29;20106;-50
2022/11/17 01:01:12;;;;;;;5.60;2.78;;;18.40;1.00;;;;;;4825187;29;20107;-51
2022/11/17 01:03:38;;;;;;;7.28;3.30;;;18.40;1.00;;;;;;4825165;29;20073;-50
2022/11/17 01:06:11;;;;;;;8.18;2.60;;;18.40;1.00;;;;;;4825187;29;20089;-49
2022/11/17 01:08:38;;;;;;;6.57;2.35;;;18.40;1.00;;;;;;4824896;29;20046;-49
2022/11/17 01:11:11;;;;;;;6.13;3.58;;;18.40;1.00;;;;;;4825090;29;20465;-48
2022/11/17 01:13:39;;;;;;;;;;;18.40;1.00;;;;;;4825720;29;20042;-50
2022/11/17 01:16:15;;;;;;;5.00;2.03;;;18.30;1.00;;;;;;4825203;29;20439;-52
2022/11/17 01:18:44;;;;;;;7.72;3.10;;;18.30;1.00;;;;;;4824884;29;20042;-53
2022/11/17 01:21:14;;;;;;;6.70;2.80;;;18.30;1.00;;;;;;4808708;29;20047;-48
2022/11/17 01:23:43;;;;;;;5.68;3.22;;;18.30;1.00;;;;;;4825089;29;20050;-49
2022/11/17 01:26:15;;;;;;;8.52;3.03;;;18.20;1.00;;;;;;4825021;29;20118;-54
2022/11/17 01:28:43;;;;;;;6.03;2.53;;;18.20;1.00;;;;;;4824682;29;20110;-49
2022/11/17 01:31:12;;;;;;;4.72;2.45;;;18.20;1.00;;;;;;4825081;29;20046;-49
2022/11/17 01:33:40;;;;;;;4.63;2.40;;;18.20;1.00;;;;;;4824870;29;20050;-49
2022/11/17 01:36:14;;;;;;;5.22;2.50;;;18.20;1.00;;;;;;4824789;29;20050;-53
2022/11/17 01:38:42;;;;;;;3.35;2.53;;;18.20;1.00;;;;;;4824677;29;20121;-51
2022/11/17 01:41:14;;;;;;;8.38;2.75;;;18.20;1.00;;;;;;4824734;29;20095;-49
2022/11/17 01:43:41;;;;;;;7.57;3.17;;;18.10;1.00;;;;;;4824780;29;20102;-50
2022/11/17 01:46:26;;;;;;;6.65;3.20;;;18.10;1.00;;;;;;4824746;29;20095;-49
2022/11/17 01:48:58;;;;;;;7.03;2.90;;;18.10;1.00;;;;;;4824298;29;20069;-52
2022/11/17 01:51:28;;;;;;;6.28;3.10;;;18.10;1.00;;;;;;4824534;29;20065;-50
2022/11/17 01:53:55;;;;;;;4.93;2.47;;;18.10;1.00;;;;;;4824747;29;20568;-50
2022/11/17 01:56:27;;;;;;;8.07;2.47;;;18.00;1.00;;;;;;4824390;29;20058;-50
2022/11/17 01:59:01;;;;;;;6.60;2.58;;;18.10;1.00;;;;;;4824153;29;20050;-51
2022/11/17 02:01:28;;;;;;;5.78;2.45;;;18.10;1.00;;;;;;4824551;29;20396;-53
2022/11/17 02:03:55;;;;;;;6.47;2.67;;;18.00;1.00;;;;;;4824650;29;20046;-51
2022/11/17 02:06:32;;;;;;;4.13;2.63;;;18.00;1.00;;;;;;4824444;29;20050;-51
2022/11/17 02:09:02;;;;;;;5.15;3.10;;;18.00;1.00;;;;;;4824094;29;20050;-50
2022/11/17 02:11:34;;;;;;;5.55;2.63;;;18.00;1.00;;;;;;4824539;29;20054;-49
2022/11/17 02:14:04;;;;;;;10.02;3.13;;;18.00;1.00;;;;;;4824349;29;20365;-51
2022/11/17 02:16:30;;;;;;;6.40;2.40;;;18.00;1.00;;;;;;4824358;29;20042;-50
2022/11/17 02:18:57;;;;;;;7.95;2.50;;;17.90;1.00;;;;;;4823971;29;20051;-52
2022/11/17 02:21:39;;;;;;;8.57;2.63;;;17.90;1.00;;;;;;4823719;29;20034;-53
2022/11/17 02:24:37;;;;;;;6.22;2.70;;;17.90;1.00;;;;;;4824301;29;20049;-52
2022/11/17 02:27:32;;;;;;;9.48;2.72;;;17.90;1.00;;;;;;4824322;29;20038;-54
2022/11/17 02:30:06;;;;;;;7.45;2.50;;;17.90;1.00;;;;;;4823672;29;20042;-52
2022/11/17 02:33:01;;;;;;;7.10;2.58;;;17.80;1.00;;;;;;4824163;29;20054;-54
2022/11/17 02:35:53;;;;;;;5.78;2.22;;;17.90;1.00;;;;;;4824278;29;20050;-54
2022/11/17 02:38:35;;;;;;;3.83;2.17;;;17.90;1.00;;;;;;4823671;29;20054;-50
2022/11/17 02:41:08;;;;;;;6.82;2.70;;;17.80;1.00;;;;;;4824045;29;20456;-52
2022/11/17 02:44:04;;;;;;;6.05;2.83;;;17.80;1.00;;;;;;4823961;29;20085;-52
2022/11/17 02:46:38;;;;;;;4.70;1.98;;;17.80;1.00;;;;;;4823936;29;20053;-49
2022/11/17 02:49:13;;;;;;;5.22;2.65;;;17.80;1.00;;;;;;4823628;29;20042;-48
2022/11/17 02:51:42;;;;;;;8.85;2.50;;;17.80;1.00;;;;;;4807594;29;20038;-49
2022/11/17 02:54:10;;;;;;;4.85;2.20;;;17.80;1.00;;;;;;4823624;29;20049;-48
2022/11/17 02:56:41;;;;;;;5.45;2.60;;;17.80;1.00;;;;;;4807581;29;20047;-49
2022/11/17 02:59:12;;;;;;;7.75;2.00;;;17.70;1.00;;;;;;4823421;29;20038;-50
2022/11/17 03:01:48;;;;;;;7.32;2.67;;;17.70;1.00;;;;;;4823809;29;20052;-49
2022/11/17 03:04:30;;;;;;;4.53;2.60;;;17.80;1.00;;;;;;4823762;29;20054;-49
2022/11/17 03:07:42;;;;;;;7.60;2.50;;;17.70;1.00;;;;;;4823776;29;20433;-51
2022/11/17 03:10:18;;;;;;;3.58;1.60;;;17.70;1.00;;;;;;4784918;29;20547;-51
2022/11/17 03:13:13;;;;;;;4.30;1.92;;;17.70;1.00;;;;;;4785544;30;20537;-50
2022/11/17 03:16:03;;;;;;;17.05;2.85;;;17.70;1.00;;;;;;4813244;29;20560;-51
2022/11/17 03:19:08;;;;;;;6.63;2.03;;;17.70;1.00;;;;;;4823366;29;20055;-52
2022/11/17 03:21:38;;;;;;;6.53;2.30;;;17.70;1.00;;;;;;4767475;30;20055;-50
2022/11/17 03:24:15;;;;;;;3.60;1.80;;;17.60;1.00;;;;;;4767129;30;20442;-49
2022/11/17 03:27:00;;;;;;;2.70;1.70;;;17.60;1.00;;;;;;4799286;29;20054;-49
2022/11/17 03:29:31;;;;;;;4.50;1.80;;;17.60;1.00;;;;;;4821835;29;20050;-48
2022/11/17 03:32:03;;;;;;;4.80;1.38;;;17.60;1.00;;;;;;4823430;29;20050;-48
2022/11/17 03:34:39;;;;;;;4.43;1.52;;;17.60;1.00;;;;;;4826701;29;20050;-49
2022/11/17 03:37:09;;;;;;;7.10;1.63;;;17.60;1.00;;;;;;4826877;29;20111;-50
2022/11/17 03:39:40;;;;;;;6.20;2.83;;;17.60;1.00;;;;;;4826265;29;20107;-50
2022/11/17 03:42:21;;;;;;;6.75;1.67;;;17.60;1.00;;;;;;4826701;29;20573;-50
2022/11/17 03:44:53;;;;;;;3.40;1.52;;;17.60;1.00;;;;;;4826615;29;20038;-53
2022/11/17 03:47:24;;;;;;;3.30;1.50;;;17.60;1.00;;;;;;4826667;29;20081;-48
2022/11/17 03:50:02;;;;;;;5.05;1.65;;;17.50;1.00;;;;;;4826200;29;20038;-48
2022/11/17 03:52:30;;;;;;;4.22;1.33;;;17.50;1.00;;;;;;4826421;29;20050;-51
2022/11/17 03:54:57;;;;;;;7.85;1.98;;;17.50;1.00;;;;;;4826582;29;20057;-47
2022/11/17 03:57:30;;;;;;;3.67;1.42;;;17.50;1.00;;;;;;4826128;29;20053;-46
2022/11/17 04:00:05;;;;;;;1.55;1.10;;;17.50;1.00;;;;;;4826142;29;20054;-51
2022/11/17 04:02:46;;;;;;;4.22;1.30;;;17.50;1.00;;;;;;4826499;29;20058;-51
2022/11/17 04:05:15;;;;;;;4.75;1.75;;;17.40;1.00;;;;;;4826346;29;20039;-50
2022/11/17 04:07:45;;;;;;;4.55;1.50;;;17.50;1.00;;;;;;4826295;29;20054;-48
2022/11/17 04:10:17;;;;;;;5.13;1.70;;;17.50;1.00;;;;;;4825842;29;20420;-53
2022/11/17 04:18:19;;;;;;;1.92;1.02;;;17.40;1.00;;;;;;4825660;29;20062;-49
2022/11/17 04:20:51;;;;;;;1.42;0.70;;;17.40;1.00;;;;;;4825924;29;20515;-49
2022/11/17 04:23:19;;;;;;;3.38;1.45;;;17.40;1.00;;;;;;4825827;29;20050;-49
2022/11/17 04:28:36;;;;;;;2.67;1.55;;;17.40;1.00;;;;;;4825584;29;20046;-50
2022/11/17 04:31:02;;;;;;;2.65;0.95;;;17.40;1.00;;;;;;4825566;29;20042;-48
2022/11/17 04:33:29;;;;;;;2.67;1.30;;;17.40;1.00;;;;;;4825843;29;20095;-47
2022/11/17 04:35:56;;;;;;;3.05;1.17;;;17.40;1.00;;;;;;4825983;29;20054;-48
2022/11/17 04:38:23;;;;;;;2.60;1.00;;;17.30;1.00;;;;;;4825277;29;20046;-46
2022/11/17 04:41:52;;;;;;;3.15;1.60;;;17.30;1.00;;;;;;4825761;29;20125;-51
2022/11/17 04:43:42;;;;;;;3.35;1.00;;;17.30;1.00;;;;;;4825109;29;20062;-49
2022/11/17 04:46:09;;;;;;;6.68;1.30;;;17.30;1.00;;;;;;4825608;29;20046;-49
2022/11/17 04:48:36;;;;;;;2.15;1.08;;;17.30;1.00;;;;;;4825414;29;20099;-49
2022/11/17 04:51:03;;;;;;;2.95;1.00;;;17.30;1.00;;;;;;4825548;29;20053;-54
2022/11/17 04:53:29;;;;;;;2.40;1.30;;;17.30;1.00;;;;;;4825616;29;20095;-54
2022/11/17 04:56:00;;;;;;;2.17;0.85;;;17.30;1.00;;;;;;4825376;29;20047;-52
2022/11/17 04:58:28;;;;;;;2.20;1.10;;;17.30;1.00;;;;;;4825329;29;20049;-53
2022/11/17 05:00:55;;;;;;;3.85;0.70;;;17.30;1.00;;;;;;4825378;29;20458;-53
2022/11/17 05:03:21;;;;;;;4.20;1.05;;;17.30;1.00;;;;;;4825270;29;20046;-54
2022/11/17 05:05:48;;;;;;;1.10;0.60;;;17.30;1.00;;;;;;4825378;29;20470;-52
2022/11/17 05:08:15;;;;;;;1.90;1.08;;;17.30;1.00;;;;;;4823066;29;20046;-49
2022/11/17 05:13:27;;;;;;;7.55;1.30;;;17.20;1.00;;;;;;4825033;29;20042;-54
2022/11/17 05:18:42;;;;;;;3.15;0.70;;;17.20;1.00;;;;;;4824378;29;20564;-53
2022/11/17 05:21:10;;;;;;;2.83;1.08;;;17.20;1.00;;;;;;4824839;29;20050;-55
2022/11/17 05:23:52;;;;;;;3.53;1.23;;;17.20;1.00;;;;;;4824795;29;20103;-54
2022/11/17 05:26:25;;;;;;;5.10;1.98;;;17.20;1.00;;;;;;4824974;29;20042;-52
2022/11/17 05:28:54;;;;;;;14.68;3.17;;;17.20;1.00;;;;;;4824662;29;20046;-53
2022/11/17 05:31:22;;;;;;;2.35;0.73;;;17.20;1.00;;;;;;4824794;29;20050;-52
2022/11/17 05:33:49;;;;;;;2.22;0.93;;;17.20;1.00;;;;;;4824697;29;20061;-53
2022/11/17 05:36:16;;;;;;;1.35;0.80;;;17.20;1.00;;;;;;4824947;29;20054;-53
2022/11/17 05:38:45;;;;;;;3.92;1.33;;;17.10;1.00;;;;;;4824166;29;20412;-54
2022/11/17 05:41:13;;;;;;;5.80;1.73;;;17.10;1.00;;;;;;4824301;29;20111;-53
2022/11/17 05:43:40;;;;;;;5.03;0.93;;;17.10;1.00;;;;;;4824090;29;20051;-54
2022/11/17 05:46:07;;;;;;;4.40;0.98;;;17.10;1.00;;;;;;4824297;29;20484;-53
2022/11/17 05:48:34;;;;;;;1.83;0.88;;;17.10;1.00;;;;;;4824459;29;20129;-53
2022/11/17 05:51:01;;;;;;;3.95;0.82;;;17.10;1.00;;;;;;4824541;29;20095;-53
2022/11/17 05:53:29;;;;;;;2.15;0.73;;;17.10;1.00;;;;;;4824721;29;20078;-51
2022/11/17 05:56:08;;;;;;;3.20;0.80;;;17.10;1.00;;;;;;4823841;29;20054;-50
2022/11/17 05:58:37;;;;;;;2.67;0.98;;;17.10;1.00;;;;;;4824286;29;20081;-49
2022/11/17 06:01:08;;;;;;;1.55;0.93;;;17.10;1.00;;;;;;4824462;29;20047;-49
2022/11/17 06:03:44;;;;;;;2.35;0.95;;;17.10;1.00;;;;;;4824490;29;20054;-51
2022/11/17 06:06:11;;;;;;;3.67;0.98;;;17.00;1.00;;;;;;4824431;29;20046;-49
2022/11/17 06:08:38;;;;;;;2.15;0.93;;;17.00;1.00;;;;;;4823939;29;20066;-53
2022/11/17 06:11:04;;;;;;;2.00;0.88;;;17.00;1.00;;;;;;4824110;29;20110;-52
2022/11/17 06:13:31;;;;;;;2.55;0.93;;;17.00;1.00;;;;;;4824370;29;20413;-51
2022/11/17 06:16:02;;;;;;;3.63;1.10;;;17.00;1.00;;;;;;4824295;29;20050;-53
2022/11/17 06:18:45;;;;;;;2.65;0.93;;;17.00;1.00;;;;;;4823989;29;20054;-48
2022/11/17 06:21:14;;;;;;;3.85;0.90;;;17.00;1.00;;;;;;4824229;29;20061;-51
2022/11/17 06:23:43;;;;;;;1.60;0.85;;;17.00;1.00;;;;;;4824258;29;20107;-48
2022/11/17 06:26:11;;;;;;;2.65;1.88;;;17.00;1.00;;;;;;4824166;29;20057;-51
2022/11/17 06:28:40;;;;;;;3.10;1.33;;;17.00;1.00;;;;;;4823962;29;20062;-51
2022/11/17 06:31:07;;;;;;;2.38;0.75;;;17.00;1.00;;;;;;4824000;29;20046;-52
2022/11/17 06:33:35;;;;;;;4.30;1.20;;;17.00;1.00;;;;;;4824080;29;20497;-49
2022/11/17 06:36:06;;;;;;;1.30;0.80;;;17.00;1.00;;;;;;4823984;29;20584;-53
2022/11/17 06:38:34;;;;;;;2.25;0.82;;;16.90;1.00;;;;;;4823853;29;20505;-50
2022/11/17 06:41:05;;;;;;;3.85;1.13;;;16.90;1.00;;;;;;4823805;29;20390;-50
2022/11/17 06:43:37;;;;;;;2.35;0.80;;;16.90;1.00;;;;;;4824061;29;20042;-51
2022/11/17 06:46:04;;;;;;;1.92;1.42;;;16.90;1.00;;;;;;4823903;29;20043;-51
2022/11/17 06:48:34;;;;;;;3.47;1.48;;;16.90;1.00;;;;;;4823553;29;20049;-50
2022/11/17 06:51:04;;;;;;;2.63;1.55;;;16.90;1.00;;;;;;4823799;29;20109;-51
2022/11/17 06:53:32;;;;;;;3.80;1.20;;;16.90;1.00;;;;;;4823948;29;20057;-48
2022/11/17 06:56:01;;;;;;;4.05;1.00;;;16.90;1.00;;;;;;4823823;29;20082;-49
2022/11/17 06:58:29;;;;;;;1.63;0.80;;;16.90;1.00;;;;;;4806927;29;20051;-49
2022/11/17 07:01:14;;;;;;;2.92;1.20;;;16.90;1.00;;;;;;4823656;29;20520;-49
2022/11/17 07:03:42;;;;;;;3.90;0.80;;;16.90;1.00;;;;;;4823765;29;20053;-53
2022/11/17 07:06:10;;;;;;;3.90;1.48;;;16.90;1.00;;;;;;4823846;29;20046;-50
2022/11/17 07:08:38;;;;;;;2.03;1.00;;;16.80;1.00;;;;;;4827000;29;20046;-49
2022/11/17 07:11:08;;;;;;;3.33;0.98;;;16.80;1.00;;;;;;4827339;29;20043;-48
2022/11/17 07:13:35;;;;;;;2.03;1.17;;;16.80;1.00;;;;;;4827422;29;20409;-50
2022/11/17 07:16:08;;;;;;;3.33;1.38;;;16.80;1.00;;;;;;4827103;29;20051;-49
2022/11/17 07:18:36;;;;;;;5.88;0.93;;;16.80;1.00;;;;;;4826894;29;20493;-49
2022/11/17 07:21:05;;;;;;;2.33;0.70;;;16.80;1.00;;;;;;4826952;29;20056;-49
2022/11/17 07:23:34;;;;;;;2.22;0.90;;;16.80;1.00;;;;;;4826719;29;20083;-48
2022/11/17 07:26:01;;;;;;;2.40;1.00;;;16.80;1.00;;;;;;4826961;29;20057;-48
2022/11/17 07:28:28;;;;;;;4.43;1.02;;;16.80;1.00;;;;;;4826613;29;20073;-50
2022/11/17 07:30:55;;;;;;;1.90;0.82;;;16.80;1.00;;;;;;4826640;29;20054;-49
2022/11/17 07:33:22;;;;;;;2.38;0.80;;;16.70;1.00;;;;;;4826758;29;20530;-48
2022/11/17 07:35:50;;;;;;;1.45;0.90;;;16.70;1.00;;;;;;4826859;29;20065;-48
2022/11/17 07:38:16;;;;;;;2.70;0.80;;;16.70;1.00;;;;;;4826500;29;20046;-48
2022/11/17 07:40:43;;;;;;;2.30;0.90;;;16.70;1.00;;;;;;4826427;29;20054;-49
2022/11/17 07:43:10;;;;;;;3.88;1.00;;;16.70;1.00;;;;;;4826509;29;20407;-49
2022/11/17 07:45:37;;;;;;;2.63;1.05;;;16.70;1.00;;;;;;4826550;29;20463;-49
2022/11/17 07:48:05;;;;;;;3.20;0.98;;;16.70;1.00;;;;;;4826361;29;20077;-49
2022/11/17 07:50:33;;;;;;;5.10;0.88;;;16.70;1.00;;;;;;4826270;29;20050;-48
2022/11/17 07:53:00;;;;;;;1.45;1.00;;;16.70;1.00;;;;;;4826535;29;20515;-49
2022/11/17 07:55:27;;;;;;;1.80;0.77;;;16.70;1.00;;;;;;4824034;29;20165;-50
2022/11/17 07:57:59;;;;;;;5.72;1.30;;;16.70;1.00;;;;;;4816132;29;20050;-50
2022/11/17 08:00:28;;;;;;;4.03;1.73;;;16.70;1.00;;;;;;4814743;29;20090;-49
2022/11/17 08:03:00;;;;;;;4.50;1.50;;;16.70;1.00;;;;;;4814576;29;20050;-48
2022/11/17 08:05:29;;;;;;;2.40;1.20;;;16.70;1.00;;;;;;4816384;29;20038;-48
2022/11/17 08:07:58;;;;;;;2.10;1.02;;;16.60;1.00;;;;;;4815480;29;20462;-50
2022/11/17 08:10:26;;;;;;;1.83;0.80;;;16.60;1.00;;;;;;4815459;29;20086;-49
2022/11/17 08:12:53;;;;;;;2.55;1.00;;;16.60;1.00;;;;;;4824205;29;20540;-48
2022/11/17 08:15:21;;;;;;;2.88;1.20;;;16.60;1.00;;;;;;4823997;29;20073;-49
2022/11/17 08:17:55;;;;;;;2.22;1.08;;;16.60;1.00;;;;;;4821312;29;20051;-51
2022/11/17 08:20:23;;;;;;;1.73;0.73;;;16.60;1.00;;;;;;4815616;29;20042;-50
2022/11/17 08:22:51;;;;;;;5.00;0.93;;;16.60;1.00;;;;;;4815981;29;20074;-52
2022/11/17 08:25:19;;;;;;;4.40;1.20;;;16.60;1.00;;;;;;4815433;29;20047;-53
2022/11/17 08:27:50;;;;;;;4.40;0.70;;;16.60;1.00;;;;;;4819744;29;20493;-48
2022/11/17 08:30:19;;;;;;;3.30;1.20;;;16.60;1.00;;;;;;4825696;29;20113;-49
2022/11/17 08:32:51;;;;;;;2.65;1.00;;;16.60;1.00;;;;;;4825686;29;20062;-50
2022/11/17 08:35:20;;;;;;;2.35;0.82;;;16.60;1.00;;;;;;4826014;29;20130;-46
2022/11/17 08:37:47;;;;;;;1.98;0.50;;;16.60;1.00;;;;;;4825715;29;20416;-50
2022/11/17 08:40:14;;;;;;;1.38;0.70;;;16.50;1.00;;;;;;4825364;29;20078;-49
2022/11/17 08:42:41;;;;;;;1.38;0.70;;;16.60;1.00;;;;;;4825695;29;20106;-48
2022/11/17 08:45:09;;;;;;;1.42;0.70;;;16.60;1.00;;;;;;4825431;29;20438;-49
2022/11/17 08:47:36;;;;;;;2.15;0.30;;;16.50;1.00;;;;;;4825518;29;20497;-48
2022/11/17 08:50:05;;;;;;;2.03;0.77;;;16.50;1.00;;;;;;4825161;29;20046;-49
2022/11/17 08:52:32;;;;;;;1.73;0.50;;;16.50;1.00;;;;;;4825426;29;20042;-50
2022/11/17 08:54:59;;;;;;;4.32;1.00;;;16.60;1.00;;;;;;4825338;29;20552;-49
2022/11/17 08:57:28;;;;;;;1.10;0.50;;;16.50;1.00;;;;;;4825230;29;20050;-48
2022/11/17 08:59:55;;;;;;;1.60;0.75;;;16.50;1.00;;;;;;4824965;29;20050;-49
2022/11/17 09:02:22;;;;;;;0.68;0.40;;;16.50;1.00;;;;;;4825390;29;20070;-51
2022/11/17 09:04:49;;;;;;;6.45;1.10;;;16.50;1.00;;;;;;4825328;29;20445;-51
2022/11/17 09:07:17;;;;;;;0.90;0.50;;;16.50;1.00;;;;;;4825128;29;20107;-50
2022/11/17 09:09:45;;;;;;;1.58;0.50;;;16.50;1.00;;;;;;4824800;29;20405;-49
2022/11/17 09:12:12;;;;;;;1.52;0.93;;;16.50;1.00;;;;;;4825160;29;20043;-51
2022/11/17 09:14:38;;;;;;;2.00;0.52;;;16.50;1.00;;;;;;4825289;29;20462;-48
2022/11/17 09:17:05;;;;;;;1.20;0.47;;;16.50;1.00;;;;;;4825015;29;20053;-50
2022/11/17 09:19:32;;;;;;;1.52;0.80;;;16.50;1.00;;;;;;4824736;29;20055;-49
2022/11/17 09:21:59;;;;;;;2.20;0.63;;;16.50;1.00;;;;;;4824818;29;20668;-50
2022/11/17 09:24:26;;;;;;;1.50;0.65;;;16.50;1.00;;;;;;4824975;29;20134;-49
2022/11/17 09:26:56;;;;;;;1.15;0.38;;;16.50;1.00;;;;;;4824992;29;20046;-51
2022/11/17 09:29:23;;;;;;;1.17;0.60;;;16.50;1.00;;;;;;4824472;29;20042;-49
2022/11/17 09:31:50;;;;;;;0.82;0.32;;;16.50;1.00;;;;;;4824810;29;20046;-50
2022/11/17 09:34:17;;;;;;;1.15;0.30;;;16.50;1.00;;;;;;4824822;29;20078;-49
2022/11/17 09:36:43;;;;;;;1.85;1.23;;;16.50;1.00;;;;;;4824902;29;20050;-48
2022/11/17 09:39:10;;;;;;;0.95;0.20;;;16.50;1.00;;;;;;4824316;29;20065;-51
2022/11/17 09:41:58;;;;;;;3.20;0.50;;;16.50;1.00;;;;;;4824604;29;20057;-48
2022/11/17 09:44:39;;;;;;;1.98;0.55;;;16.50;1.00;;;;;;4824684;29;20042;-48
2022/11/17 09:47:26;;;;;;;2.45;0.50;;;16.50;1.00;;;;;;4824676;29;20099;-47
2022/11/17 09:49:56;;;;;;;1.63;0.50;;;16.50;1.00;;;;;;4817590;29;20465;-52
2022/11/17 09:52:52;;;;;;;1.67;0.40;;;16.50;1.00;;;;;;4824887;29;20141;-48
2022/11/17 09:55:38;;;;;;;1.10;0.50;;;16.50;1.00;;;;;;4824577;29;20054;-51
2022/11/17 09:58:10;;;;;;;1.85;0.43;;;16.40;1.00;;;;;;4823953;29;20054;-48
2022/11/17 10:00:40;;;;;;;1.95;0.47;;;16.40;1.00;;;;;;4824544;29;20420;-48
2022/11/17 10:03:21;;;;;;;2.65;0.50;;;16.40;1.00;;;;;;4824524;29;20072;-52
2022/11/17 10:05:49;;;;;;;1.23;0.45;;;16.40;1.00;;;;;;4824400;29;20050;-52
2022/11/17 10:08:22;;;;;;;1.48;0.50;;;16.40;1.00;;;;;;4823932;29;20055;-48
2022/11/17 10:10:50;;;;;;;1.33;0.30;;;16.40;1.00;;;;;;4824504;29;20129;-48
2022/11/17 10:13:25;;;;;;;2.08;0.50;;;16.40;1.00;;;;;;4824234;29;20107;-49
2022/11/17 10:16:02;;;;;;;2.75;0.30;;;16.40;1.00;;;;;;4824427;29;20495;-52
2022/11/17 10:18:37;;;;;;;5.45;0.77;;;16.40;1.00;;;;;;4823973;29;20485;-49
2022/11/17 10:21:06;;;;;;;0.47;0.10;;;16.40;1.00;;;;;;4824195;29;20117;-46
2022/11/17 10:23:39;;;;;;;6.13;0.88;;;16.40;1.00;;;;;;4824088;29;20046;-50
2022/11/17 10:26:14;;;;;;;1.90;0.20;;;16.40;1.00;;;;;;4824539;29;20034;-49
2022/11/17 10:28:41;;;;;;;1.73;0.38;;;16.40;1.00;;;;;;4823721;29;20046;-53
2022/11/17 10:31:14;;;;;;;2.17;0.60;;;16.40;1.00;;;;;;4824070;29;20046;-53
2022/11/17 10:33:43;;;;;;;;;;;16.40;1.00;;;;;;4824521;29;20050;-51
2022/11/17 10:36:25;;;;;;;0.70;0.50;;;16.40;1.00;;;;;;4824031;29;19924;-48
2022/11/17 10:38:53;;;;;;;2.38;0.28;;;16.40;1.00;;;;;;4823658;29;20050;-49
2022/11/17 10:41:31;;;;;;;1.25;0.20;;;16.40;1.00;;;;;;4823226;29;20050;-49
2022/11/17 10:44:04;;;;;;;1.75;0.22;;;16.40;1.00;;;;;;4823491;29;20082;-50
2022/11/17 10:46:31;;;;;;;0.63;0.20;;;16.40;1.00;;;;;;4823495;29;20043;-49
2022/11/17 10:49:24;;;;;;;0.60;0.28;;;16.40;1.00;;;;;;4823508;29;20074;-48
2022/11/17 10:52:04;;;;;;;1.60;0.73;;;16.40;1.00;;;;;;4823902;29;20051;-48
2022/11/17 10:54:31;;;;;;;1.02;0.47;;;16.40;1.00;;;;;;4824021;29;20565;-49
2022/11/17 10:57:00;;;;;;;1.77;0.30;;;16.40;1.00;;;;;;4823849;29;20122;-51
2022/11/17 10:59:44;;;;;;;1.30;0.30;;;16.40;1.00;;;;;;4823455;29;20505;-51
2022/11/17 11:02:28;;;;;;;1.05;0.43;;;16.40;1.00;;;;;;4823768;29;20065;-48
2022/11/17 11:05:16;;;;;;;3.22;0.30;;;16.40;1.00;;;;;;4823668;29;20051;-50
2022/11/17 11:07:43;;;;;;;0.90;0.30;;;16.40;1.00;;;;;;4823652;29;20053;-51
2022/11/17 11:10:31;;;;;;;1.02;0.15;;;16.40;1.00;;;;;;4823439;29;20425;-53
2022/11/17 11:13:18;;;;;;;2.40;0.25;;;16.40;1.00;;;;;;4823445;29;20408;-50
2022/11/17 11:15:45;;;;;;;1.48;0.40;;;16.40;1.00;;;;;;4823624;29;20047;-52
2022/11/17 11:18:14;;;;;;;0.80;0.30;;;16.40;1.00;;;;;;4823223;29;20137;-50
2022/11/17 11:21:18;;;;;;;0.77;0.20;;;16.40;1.00;;;;;;4823542;29;20065;-49
2022/11/17 11:24:01;;;;;;;1.40;0.20;;;16.40;1.00;;;;;;4823400;29;20064;-48
2022/11/17 11:26:28;;;;;;;0.68;0.25;;;16.30;1.00;;;;;;4823440;29;20046;-52
2022/11/17 11:29:21;;;;;;;2.35;0.30;;;16.30;1.00;;;;;;4822805;29;20103;-50
2022/11/17 11:31:58;;;;;;;2.38;0.50;;;16.30;1.00;;;;;;4823259;29;20078;-52
2022/11/17 11:35:03;;;;;;;2.53;0.60;;;16.30;1.00;;;;;;4823234;29;20454;-50
2022/11/17 11:37:49;;;;;;;0.65;0.28;;;16.30;1.00;;;;;;4823506;29;20059;-50
2022/11/17 11:40:33;;;;;;;1.38;0.40;;;16.30;1.00;;;;;;4823095;29;20489;-49
2022/11/17 11:43:19;;;;;;;1.42;0.20;;;16.30;1.00;;;;;;4823244;29;20047;-51
2022/11/17 11:46:01;;;;;;;1.02;0.30;;;16.30;1.00;;;;;;4823237;29;20039;-48
2022/11/17 11:48:32;;;;;;;1.45;0.30;;;16.30;1.00;;;;;;4822804;29;20042;-51
2022/11/17 11:51:10;;;;;;;3.03;0.70;;;16.30;1.00;;;;;;4823075;29;20046;-50
2022/11/17 11:54:06;;;;;;;0.93;0.40;;;16.30;1.00;;;;;;4823924;29;20051;-49
2022/11/17 11:56:37;;;;;;;0.98;0.57;;;16.30;1.00;;;;;;4826307;29;20042;-52
2022/11/17 11:59:13;;;;;;;0.80;0.20;;;16.30;1.00;;;;;;4825981;29;20120;-48
2022/11/17 12:01:51;;;;;;;1.70;0.30;;;16.30;1.00;;;;;;4826396;29;20046;-50
2022/11/17 12:04:43;;;;;;;0.82;0.40;;;16.30;1.00;;;;;;4826179;29;20054;-47
2022/11/17 12:07:39;;;;;;;2.35;0.40;;;16.30;1.00;;;;;;4826059;29;20129;-52
2022/11/17 12:10:18;;;;;;;1.42;0.55;;;16.30;1.00;;;;;;4820956;29;20062;-51
2022/11/17 12:12:46;;;;;;;2.33;0.60;;;16.30;1.00;;;;;;4826036;29;20469;-49
2022/11/17 12:15:19;;;;;;;0.93;0.32;;;16.30;1.00;;;;;;4826565;29;20099;-53
2022/11/17 12:18:09;;;;;;;0.70;0.30;;;16.30;1.00;;;;;;4825629;29;20470;-50
2022/11/17 12:20:48;;;;;;;2.75;0.57;;;16.30;1.00;;;;;;4825960;29;20053;-48
2022/11/17 12:23:36;;;;;;;1.08;0.40;;;16.30;1.00;;;;;;4826101;29;20050;-49
2022/11/17 12:26:04;;;;;;;1.05;0.30;;;16.30;1.00;;;;;;4825627;29;20042;-50
2022/11/17 12:28:35;;;;;;;0.63;0.20;;;16.30;1.00;;;;;;4825424;29;20054;-52
2022/11/17 12:31:05;;;;;;;1.98;0.40;;;16.30;1.00;;;;;;4825988;29;20050;-51
2022/11/17 12:33:51;;;;;;;1.50;0.57;;;16.30;1.00;;;;;;4825487;29;20103;-51
2022/11/17 12:36:30;;;;;;;1.75;0.30;;;16.30;1.00;;;;;;4825632;29;20042;-49
2022/11/17 12:39:02;;;;;;;0.88;0.40;;;16.30;1.00;;;;;;4825060;29;20076;-51
2022/11/17 12:41:47;;;;;;;1.35;0.50;;;16.30;1.00;;;;;;4825645;29;20129;-53
2022/11/17 12:44:36;;;;;;;1.77;0.95;;;16.30;1.00;;;;;;4825492;29;20054;-50
2022/11/17 12:47:15;;;;;;;1.35;0.88;;;16.30;1.00;;;;;;4825456;29;20038;-50
2022/11/17 12:50:08;;;;;;;1.92;0.47;;;16.30;1.00;;;;;;4825192;29;20046;-48
2022/11/17 12:52:56;;;;;;;1.27;0.60;;;16.30;1.00;;;;;;4823508;29;20062;-50
2022/11/17 12:55:41;;;;;;;2.58;0.60;;;16.30;1.00;;;;;;4825469;29;20046;-48
2022/11/17 12:58:17;;;;;;;3.08;0.45;;;16.30;1.00;;;;;;4824931;29;20052;-48
2022/11/17 13:01:25;;;;;;;3.08;0.90;;;16.30;1.00;;;;;;4825457;29;20042;-49
2022/11/17 13:03:54;;;;;;;1.20;0.68;;;16.30;1.00;;;;;;4812469;29;20067;-48
2022/11/17 13:06:21;;;;;;;1.08;0.50;;;16.30;1.00;;;;;;4825142;29;20119;-49
2022/11/17 13:09:11;;;;;;;0.80;0.30;;;16.30;1.00;;;;;;4824817;29;20057;-49
2022/11/17 13:11:38;;;;;;;1.63;0.30;;;16.30;1.00;;;;;;4825194;29;20512;-48
2022/11/17 13:14:09;;;;;;;1.15;0.40;;;16.30;1.00;;;;;;4825190;29;20129;-52
2022/11/17 13:16:45;;;;;;;0.60;0.20;;;16.30;1.00;;;;;;4825103;29;20457;-52
2022/11/17 13:19:31;;;;;;;1.77;0.43;;;16.30;1.00;;;;;;4824633;29;20095;-53
2022/11/17 13:22:04;;;;;;;0.93;0.45;;;16.30;1.00;;;;;;4824984;29;20050;-51
2022/11/17 13:24:36;;;;;;;5.20;0.47;;;16.30;1.00;;;;;;4824697;29;20050;-51
2022/11/17 13:27:08;;;;;;;1.77;0.60;;;16.30;1.00;;;;;;4825009;29;20091;-51
2022/11/17 13:29:35;;;;;;;2.13;0.40;;;16.30;1.00;;;;;;4824516;29;20489;-50
2022/11/17 13:32:22;;;;;;;1.50;0.57;;;16.30;1.00;;;;;;4824759;29;20072;-50
2022/11/17 13:34:59;;;;;;;1.80;0.55;;;16.30;1.00;;;;;;4825001;29;20394;-48
2022/11/17 13:37:27;;;;;;;2.72;0.40;;;16.30;1.00;;;;;;4825026;29;20081;-51
2022/11/17 13:40:15;;;;;;;1.95;0.70;;;16.20;1.00;;;;;;4824536;29;20049;-49
2022/11/17 13:42:42;;;;;;;5.47;0.50;;;16.20;1.00;;;;;;4824571;29;20129;-49
2022/11/17 13:45:13;;;;;;;3.92;0.63;;;16.20;1.00;;;;;;4824559;29;20054;-52
2022/11/17 13:47:49;;;;;;;1.02;0.52;;;16.20;1.00;;;;;;4824602;29;20117;-53
2022/11/17 13:50:31;;;;;;;3.17;0.82;;;16.20;1.00;;;;;;4824357;29;20081;-52
2022/11/17 13:53:10;;;;;;;2.50;0.50;;;16.20;1.00;;;;;;4824486;29;20480;-51